createdAt,value
2023-03-26T00:02:59.252Z,62.42
2023-03-26T00:06:10.494Z,61.87
2023-03-26T00:09:13.622Z,62.00
2023-03-26T00:12:16.385Z,61.83
2023-03-26T00:15:18.930Z,61.31
2023-03-26T00:18:24.851Z,61.99
2023-03-26T00:21:29.488Z,60.59
2023-03-26T00:24:31.980Z,61.25
2023-03-26T00:27:34.550Z,60.75
2023-03-26T00:30:37.105Z,60.42
2023-03-26T00:33:41.087Z,61.54
2023-03-26T00:36:46.952Z,61.38
2023-03-26T00:39:49.685Z,61.73
2023-03-26T00:42:52.225Z,62.63
2023-03-26T00:45:55.589Z,62.84
2023-03-26T00:49:01.925Z,61.53
2023-03-26T00:52:04.766Z,60.82
2023-03-26T00:55:07.634Z,60.90
2023-03-26T00:58:10.353Z,60.46
2023-03-26T01:01:16.556Z,60.35
2023-03-26T01:04:28.360Z,60.85
2023-03-26T01:07:31.763Z,60.28
2023-03-26T01:10:38.779Z,60.52
2023-03-26T01:13:48.606Z,60.52
2023-03-26T01:16:55.394Z,60.88
2023-03-26T01:20:13.333Z,60.50
2023-03-26T01:23:23.942Z,59.14
2023-03-26T01:26:58.518Z,58.92
2023-03-26T01:30:49.696Z,58.78
2023-03-26T01:34:02.856Z,59.11
2023-03-26T01:37:32.674Z,59.46
2023-03-26T01:40:43.154Z,59.73
2023-03-26T01:43:58.462Z,59.38
2023-03-26T01:47:01.652Z,59.51
2023-03-26T01:50:04.799Z,59.38
2023-03-26T01:53:09.561Z,58.69
2023-03-26T01:56:13.389Z,58.81
2023-03-26T01:59:33.747Z,58.83
2023-03-26T02:03:24.219Z,58.83
2023-03-26T02:06:37.600Z,58.64
2023-03-26T02:09:47.220Z,59.30
2023-03-26T02:12:51.208Z,59.14
2023-03-26T02:16:05.935Z,59.25
2023-03-26T02:19:15.694Z,59.04
2023-03-26T02:22:19.010Z,58.34
2023-03-26T02:25:22.451Z,58.37
2023-03-26T02:28:26.541Z,58.87
2023-03-26T02:31:30.207Z,60.07
2023-03-26T02:34:32.990Z,60.29
2023-03-26T02:37:36.104Z,60.57
2023-03-26T02:40:48.166Z,60.82
2023-03-26T02:43:51.085Z,61.04
2023-03-26T02:46:56.819Z,61.94
2023-03-26T02:50:12.013Z,62.49
2023-03-26T02:53:37.579Z,63.61
2023-03-26T02:57:12.104Z,64.44
2023-03-26T03:00:27.207Z,63.53
2023-03-26T03:03:30.605Z,64.68
2023-03-26T03:06:57.814Z,65.65
2023-03-26T03:10:02.775Z,66.30
2023-03-26T03:13:24.055Z,66.77
2023-03-26T03:16:27.117Z,67.98
2023-03-26T03:19:30.177Z,68.62
2023-03-26T03:22:33.596Z,68.79
2023-03-26T03:25:36.326Z,68.84
2023-03-26T03:28:38.790Z,69.33
2023-03-26T03:31:41.779Z,68.14
2023-03-26T03:34:55.074Z,66.81
2023-03-26T03:37:58.867Z,67.51
2023-03-26T03:41:02.972Z,68.37
2023-03-26T03:44:06.873Z,69.57
2023-03-26T03:47:13.657Z,70.48
2023-03-26T03:50:16.524Z,70.79
2023-03-26T03:53:37.267Z,71.97
2023-03-26T03:56:40.688Z,72.62
2023-03-26T03:59:49.334Z,73.80
2023-03-26T04:02:54.482Z,73.25
2023-03-26T04:05:57.727Z,72.58
2023-03-26T04:09:02.763Z,72.94
2023-03-26T04:12:06.536Z,73.18
2023-03-26T04:15:24.389Z,74.37
2023-03-26T04:18:27.877Z,74.63
2023-03-26T04:21:32.205Z,75.16
2023-03-26T04:24:38.374Z,75.53
2023-03-26T04:27:47.911Z,75.67
2023-03-26T04:31:00.712Z,75.42
2023-03-26T04:34:26.514Z,75.88
2023-03-26T04:37:46.105Z,75.23
2023-03-26T04:40:53.210Z,74.96
2023-03-26T04:44:22.652Z,75.18
2023-03-26T04:47:37.193Z,75.86
2023-03-26T04:50:45.861Z,76.07
2023-03-26T04:54:00.097Z,76.51
2023-03-26T04:57:09.499Z,76.73
2023-03-26T05:00:22.632Z,76.63
2023-03-26T05:03:32.583Z,76.24
2023-03-26T05:06:41.913Z,75.07
2023-03-26T05:09:54.872Z,74.39
2023-03-26T05:12:59.158Z,72.16
2023-03-26T05:16:13.658Z,70.79
2023-03-26T05:19:27.416Z,70.00
2023-03-26T05:22:30.556Z,69.10
2023-03-26T05:25:50.003Z,67.93
2023-03-26T05:28:56.947Z,68.30
2023-03-26T05:32:04.306Z,67.55
2023-03-26T05:35:07.697Z,66.63
2023-03-26T05:38:10.858Z,66.00
2023-03-26T05:41:13.505Z,65.67
2023-03-26T05:44:19.464Z,64.67
2023-03-26T05:47:22.124Z,65.44
2023-03-26T05:50:25.472Z,64.89
2023-03-26T05:53:32.381Z,64.78
2023-03-26T05:56:53.290Z,64.08
2023-03-26T06:00:15.570Z,63.60
2023-03-26T06:03:23.142Z,63.96
2023-03-26T06:06:44.957Z,62.81
2023-03-26T06:09:47.774Z,62.54
2023-03-26T06:12:50.317Z,61.96
2023-03-26T06:15:54.517Z,60.99
2023-03-26T06:19:07.790Z,60.60
2023-03-26T06:22:25.488Z,59.81
2023-03-26T06:25:52.303Z,59.00
2023-03-26T06:29:14.686Z,57.44
2023-03-26T06:32:31.801Z,56.76
2023-03-26T06:35:46.842Z,55.27
2023-03-26T06:38:51.569Z,52.88
2023-03-26T06:41:54.356Z,51.78
2023-03-26T06:45:33.920Z,51.16
2023-03-26T06:48:54.819Z,51.32
2023-03-26T06:52:15.605Z,50.31
2023-03-26T06:55:26.346Z,50.25
2023-03-26T06:58:47.871Z,50.30
2023-03-26T07:02:11.725Z,49.94
2023-03-26T07:05:33.282Z,50.25
2023-03-26T07:08:48.002Z,50.37
2023-03-26T07:12:09.798Z,49.94
2023-03-26T07:15:28.920Z,49.39
2023-03-26T07:18:49.978Z,49.33
2023-03-26T07:21:57.366Z,48.65
2023-03-26T07:25:20.597Z,48.31
2023-03-26T07:29:04.580Z,47.90
2023-03-26T07:32:32.774Z,47.56
2023-03-26T07:36:17.928Z,47.14
2023-03-26T07:39:58.517Z,46.29
2023-03-26T07:43:44.192Z,44.67
2023-03-26T07:47:31.588Z,44.61
2023-03-26T07:50:56.467Z,43.74
2023-03-26T07:54:09.397Z,43.71
2023-03-26T07:57:47.509Z,44.05
2023-03-26T08:01:12.401Z,44.29
2023-03-26T08:04:41.489Z,43.62
2023-03-26T08:08:28.525Z,44.39
2023-03-26T08:12:06.436Z,43.75
2023-03-26T08:15:47.836Z,44.13
2023-03-26T08:19:05.091Z,43.02
2023-03-26T08:22:27.515Z,44.08
2023-03-26T08:25:40.635Z,44.40
2023-03-26T08:28:52.767Z,43.97
2023-03-26T08:31:57.586Z,43.72
2023-03-26T08:35:01.316Z,44.12
2023-03-26T08:38:03.859Z,43.86
2023-03-26T08:41:51.044Z,43.90
2023-03-26T08:45:11.957Z,44.54
2023-03-26T08:48:36.138Z,44.87
2023-03-26T08:51:47.552Z,45.27
2023-03-26T08:55:11.786Z,45.05
2023-03-26T08:58:34.373Z,44.63
2023-03-26T09:02:02.214Z,44.53
2023-03-26T09:05:25.633Z,44.50
2023-03-26T09:09:23.774Z,44.12
2023-03-26T09:12:26.321Z,43.73
2023-03-26T09:15:49.142Z,43.90
2023-03-26T09:18:55.014Z,44.51
2023-03-26T09:22:26.770Z,44.56
2023-03-26T09:25:47.684Z,44.28
2023-03-26T09:29:37.770Z,43.68
2023-03-26T09:32:40.698Z,44.14
2023-03-26T09:36:01.865Z,43.56
2023-03-26T09:39:26.892Z,43.41
2023-03-26T09:42:35.514Z,43.14
2023-03-26T09:46:15.268Z,42.94
2023-03-26T09:49:44.110Z,43.64
2023-03-26T09:53:03.082Z,43.71
2023-03-26T09:56:28.566Z,43.15
2023-03-26T10:00:01.796Z,43.46
2023-03-26T10:03:12.210Z,43.58
2023-03-26T10:06:21.546Z,43.48
2023-03-26T10:09:51.061Z,42.95
2023-03-26T10:13:13.523Z,43.63
2023-03-26T10:16:37.264Z,44.17
2023-03-26T10:19:57.225Z,43.64
2023-03-26T10:23:19.105Z,44.20
2023-03-26T10:26:38.995Z,42.81
2023-03-26T10:29:51.187Z,42.04
2023-03-26T10:33:11.238Z,42.65
2023-03-26T10:36:55.493Z,42.48
2023-03-26T10:40:22.496Z,43.04
2023-03-26T10:44:07.512Z,42.49
2023-03-26T10:47:10.942Z,42.18
2023-03-26T10:50:59.177Z,42.27
2023-03-26T10:54:44.280Z,41.16
2023-03-26T10:57:54.166Z,41.58
2023-03-26T11:01:12.246Z,41.58
2023-03-26T11:04:38.094Z,41.58
2023-03-26T11:07:56.852Z,41.86
2023-03-26T11:11:05.357Z,41.18
2023-03-26T11:14:32.142Z,40.90
2023-03-26T11:17:59.123Z,40.37
2023-03-26T11:21:26.509Z,40.89
2023-03-26T11:24:38.770Z,40.99
2023-03-26T11:27:50.311Z,40.02
2023-03-26T11:31:02.211Z,39.70
2023-03-26T11:34:13.650Z,38.80
2023-03-26T11:37:31.929Z,38.40
2023-03-26T11:40:41.586Z,37.04
2023-03-26T11:43:56.902Z,37.83
2023-03-26T11:47:10.322Z,37.88
2023-03-26T11:50:28.421Z,37.39
2023-03-26T11:53:34.650Z,37.70
2023-03-26T11:57:05.852Z,37.73
2023-03-26T12:00:21.280Z,37.64
2023-03-26T12:03:23.943Z,37.40
2023-03-26T12:06:28.994Z,38.72
2023-03-26T12:09:31.609Z,37.94
2023-03-26T12:12:39.312Z,38.00
2023-03-26T12:15:44.293Z,38.80
2023-03-26T12:19:00.055Z,37.94
2023-03-26T12:22:02.692Z,36.34
2023-03-26T12:25:16.335Z,34.50
2023-03-26T12:28:19.894Z,35.54
2023-03-26T12:31:22.733Z,35.69
2023-03-26T12:34:45.650Z,34.06
2023-03-26T12:37:48.235Z,35.27
2023-03-26T12:43:40.652Z,35.12
2023-03-26T12:44:58.891Z,35.96
2023-03-26T12:48:05.970Z,36.22
2023-03-26T12:51:22.448Z,36.13
2023-03-26T12:54:33.938Z,33.34
2023-03-26T12:58:13.943Z,33.34
2023-03-26T13:01:33.422Z,33.43
2023-03-26T13:05:02.323Z,33.18
2023-03-26T13:08:10.850Z,33.90
2023-03-26T13:11:54.924Z,34.50
2023-03-26T13:15:02.566Z,33.44
2023-03-26T13:18:07.629Z,30.24
2023-03-26T13:21:19.020Z,29.85
2023-03-26T13:24:55.436Z,29.62
2023-03-26T13:28:09.608Z,28.22
2023-03-26T13:31:22.020Z,27.64
2023-03-26T13:34:24.682Z,25.75
2023-03-26T13:38:06.130Z,25.47
2023-03-26T13:41:28.437Z,26.78
2023-03-26T13:44:48.382Z,27.24
2023-03-26T13:47:54.923Z,27.46
2023-03-26T13:51:14.450Z,28.64
2023-03-26T13:54:34.603Z,28.44
2023-03-26T13:57:46.285Z,28.53
2023-03-26T14:01:07.713Z,29.52
2023-03-26T14:04:32.210Z,30.19
2023-03-26T14:07:39.338Z,29.79
2023-03-26T14:10:48.089Z,29.81
2023-03-26T14:14:16.883Z,29.81
2023-03-26T14:17:43.076Z,29.50
2023-03-26T14:21:14.864Z,26.45
2023-03-26T14:24:27.801Z,26.99
2023-03-26T14:27:58.617Z,28.52
2023-03-26T14:31:19.588Z,29.43
2023-03-26T14:34:51.194Z,29.46
2023-03-26T14:37:53.848Z,28.85
2023-03-26T14:41:18.676Z,27.07
2023-03-26T14:44:48.712Z,28.42
2023-03-26T14:48:09.722Z,28.57
2023-03-26T14:51:31.033Z,29.70
2023-03-26T14:54:40.152Z,29.67
2023-03-26T14:57:57.654Z,29.71
2023-03-26T15:01:25.323Z,29.32
2023-03-26T15:04:49.441Z,29.23
2023-03-26T15:08:33.672Z,29.29
2023-03-26T15:11:53.666Z,28.43
2023-03-26T15:15:35.012Z,28.30
2023-03-26T15:19:00.553Z,27.12
2023-03-26T15:22:28.568Z,27.77
2023-03-26T15:25:34.257Z,27.07
2023-03-26T15:28:58.440Z,25.51
2023-03-26T15:32:34.865Z,24.42
2023-03-26T15:36:14.960Z,23.60
2023-03-26T15:39:32.052Z,25.17
2023-03-26T15:42:38.292Z,26.11
2023-03-26T15:45:50.434Z,27.25
2023-03-26T15:49:35.931Z,28.19
2023-03-26T15:52:49.116Z,28.83
2023-03-26T15:56:23.273Z,29.43
2023-03-26T15:59:42.198Z,30.01
2023-03-26T16:02:59.307Z,30.09
2023-03-26T16:06:41.445Z,30.21
2023-03-26T16:10:09.829Z,30.29
2023-03-26T16:13:21.539Z,30.15
2023-03-26T16:16:35.927Z,30.55
2023-03-26T16:20:09.817Z,30.75
2023-03-26T16:23:27.278Z,31.45
2023-03-26T16:26:45.430Z,32.62
2023-03-26T16:30:00.081Z,33.37
2023-03-26T16:33:15.466Z,34.13
2023-03-26T16:36:18.547Z,34.78
2023-03-26T16:39:44.257Z,34.78
2023-03-26T16:43:02.588Z,35.39
2023-03-26T16:46:31.587Z,35.33
2023-03-26T16:49:43.933Z,35.97
2023-03-26T16:53:05.342Z,35.85
2023-03-26T16:56:35.102Z,36.01
2023-03-26T17:00:06.387Z,36.35
2023-03-26T17:03:38.816Z,36.40
2023-03-26T17:07:08.799Z,36.92
2023-03-26T17:10:30.840Z,37.36
2023-03-26T17:14:11.496Z,38.03
2023-03-26T17:17:42.482Z,38.02
2023-03-26T17:21:04.522Z,37.98
2023-03-26T17:24:15.318Z,38.26
2023-03-26T17:28:03.915Z,38.26
2023-03-26T17:31:40.323Z,38.58
2023-03-26T17:35:04.518Z,39.00
2023-03-26T17:38:25.826Z,39.43
2023-03-26T17:41:51.719Z,39.59
2023-03-26T17:44:58.117Z,39.91
2023-03-26T17:48:10.306Z,40.20
2023-03-26T17:51:40.386Z,40.37
2023-03-26T17:54:53.892Z,40.33
2023-03-26T17:58:01.915Z,40.48
2023-03-26T18:01:14.684Z,40.38
2023-03-26T18:04:24.756Z,40.85
2023-03-26T18:07:49.386Z,40.72
2023-03-26T18:11:12.425Z,41.05
2023-03-26T18:14:29.789Z,41.18
2023-03-26T18:17:41.882Z,41.08
2023-03-26T18:20:47.244Z,41.12
2023-03-26T18:23:51.501Z,41.27
2023-03-26T18:27:09.079Z,41.69
2023-03-26T18:30:22.770Z,41.74
2023-03-26T18:33:26.060Z,42.02
2023-03-26T18:36:31.601Z,42.35
2023-03-26T18:39:34.618Z,42.58
2023-03-26T18:42:39.856Z,42.82
2023-03-26T18:45:45.591Z,42.44
2023-03-26T18:48:48.688Z,42.05
2023-03-26T18:51:57.197Z,41.97
2023-03-26T18:55:03.187Z,41.83
2023-03-26T18:58:22.287Z,41.96
2023-03-26T19:01:31.866Z,41.94
2023-03-26T19:04:37.455Z,42.26
2023-03-26T19:07:41.085Z,42.62
2023-03-26T19:10:47.613Z,42.60
2023-03-26T19:14:03.272Z,42.92
2023-03-26T19:17:07.209Z,43.11
2023-03-26T19:20:23.559Z,42.92
2023-03-26T19:23:31.938Z,43.35
2023-03-26T19:26:36.680Z,43.64
2023-03-26T19:29:42.333Z,43.82
2023-03-26T19:32:54.254Z,43.82
2023-03-26T19:36:17.767Z,44.02
2023-03-26T19:39:36.477Z,43.95
2023-03-26T19:42:44.829Z,43.95
2023-03-26T19:46:00.601Z,44.17
2023-03-26T19:52:17.496Z,44.36
2023-03-26T19:55:27.232Z,44.53
2023-03-26T19:58:30.716Z,44.06
2023-03-26T20:01:33.920Z,44.15
2023-03-26T20:04:36.950Z,43.79
2023-03-26T20:07:39.873Z,43.72
2023-03-26T20:10:43.671Z,43.24
2023-03-26T20:13:46.599Z,43.90
2023-03-26T20:16:49.383Z,44.34
2023-03-26T20:19:54.274Z,44.18
2023-03-26T20:22:57.047Z,44.53
2023-03-26T20:25:59.930Z,43.81
2023-03-26T20:29:04.070Z,43.69
2023-03-26T20:32:19.069Z,43.46
2023-03-26T20:35:35.990Z,42.89
2023-03-26T20:38:45.438Z,43.02
2023-03-26T20:41:50.085Z,42.36
2023-03-26T20:44:53.019Z,42.38
2023-03-26T20:47:55.899Z,42.47
2023-03-26T20:50:58.459Z,42.45
2023-03-26T20:54:02.094Z,42.41
2023-03-26T20:57:04.516Z,43.00
2023-03-26T21:00:23.029Z,43.15
2023-03-26T21:03:25.724Z,43.15
2023-03-26T21:06:28.488Z,43.62
2023-03-26T21:09:34.981Z,43.88
2023-03-26T21:12:45.184Z,44.12
2023-03-26T21:15:47.973Z,44.65
2023-03-26T21:18:51.729Z,44.43
2023-03-26T21:22:18.996Z,43.93
2023-03-26T21:25:42.747Z,43.97
2023-03-26T21:28:48.515Z,44.47
2023-03-26T21:31:54.191Z,44.94
2023-03-26T21:34:59.489Z,46.39
2023-03-26T21:38:04.769Z,48.06
2023-03-26T21:41:07.873Z,50.46
2023-03-26T21:44:10.952Z,51.72
2023-03-26T21:47:14.106Z,52.92
2023-03-26T21:50:20.505Z,53.36
2023-03-26T21:53:24.143Z,53.61
2023-03-26T21:56:53.175Z,54.51
2023-03-26T22:00:11.442Z,55.70
2023-03-26T22:03:25.171Z,56.25
2023-03-26T22:06:42.668Z,56.16
2023-03-26T22:09:45.612Z,56.56
2023-03-26T22:12:48.467Z,57.31
2023-03-26T22:15:51.117Z,57.66
2023-03-26T22:18:54.002Z,57.74
2023-03-26T22:21:58.271Z,57.90
2023-03-26T22:25:01.266Z,58.16
2023-03-26T22:28:04.515Z,58.79
2023-03-26T22:31:08.974Z,59.97
2023-03-26T22:34:11.736Z,61.61
2023-03-26T22:37:14.595Z,62.84
2023-03-26T22:40:17.998Z,63.14
2023-03-26T22:43:20.520Z,64.62
2023-03-26T22:46:23.887Z,65.58
2023-03-26T22:49:27.493Z,66.02
2023-03-26T22:52:31.382Z,67.46
2023-03-26T22:55:33.887Z,68.25
2023-03-26T22:58:37.296Z,67.94
2023-03-26T23:01:40.172Z,68.23
2023-03-26T23:04:44.189Z,69.11
2023-03-26T23:07:47.416Z,69.81
2023-03-26T23:10:50.010Z,70.67
2023-03-26T23:13:52.499Z,72.25
2023-03-26T23:16:55.428Z,73.44
2023-03-26T23:19:57.895Z,73.86
2023-03-26T23:23:01.208Z,74.32
2023-03-26T23:26:04.777Z,74.82
2023-03-26T23:29:07.543Z,74.95
2023-03-26T23:32:23.960Z,74.92
2023-03-26T23:35:27.510Z,75.08
2023-03-26T23:38:43.665Z,75.48
2023-03-26T23:41:46.922Z,74.92
2023-03-26T23:44:49.378Z,75.46
2023-03-26T23:47:51.988Z,74.80
2023-03-26T23:51:03.109Z,74.75
2023-03-26T23:54:08.649Z,76.17
2023-03-26T23:57:11.732Z,76.08
